createdAt,value
2022-11-17T00:01:10.428Z,99090.52
2022-11-17T00:03:39.417Z,99080.80
2022-11-17T00:06:10.151Z,99076.80
2022-11-17T00:08:40.705Z,99075.16
2022-11-17T00:11:11.665Z,99071.16
2022-11-17T00:13:59.877Z,99063.07
2022-11-17T00:16:30.465Z,99064.70
2022-11-17T00:19:18.660Z,99069.80
2022-11-17T00:21:49.340Z,99075.69
2022-11-17T00:24:20.124Z,99071.73
2022-11-17T00:27:02.631Z,99073.25
2022-11-17T00:29:36.301Z,99071.46
2022-11-17T00:32:33.040Z,99071.95
2022-11-17T00:35:04.158Z,99073.27
2022-11-17T00:37:38.167Z,99071.51
2022-11-17T00:40:10.539Z,99070.08
2022-11-17T00:42:41.119Z,99067.19
2022-11-17T00:45:13.103Z,99068.30
2022-11-17T00:47:45.167Z,99065.88
2022-11-17T00:50:16.353Z,99064.02
2022-11-17T00:52:47.025Z,99063.20
2022-11-17T00:55:17.970Z,99047.73
2022-11-17T00:57:48.698Z,99046.36
2022-11-17T01:00:21.268Z,99050.31
2022-11-17T01:02:52.338Z,99048.35
2022-11-17T01:05:22.969Z,99049.66
2022-11-17T01:07:55.381Z,99046.59
2022-11-17T01:10:25.957Z,99049.88
2022-11-17T01:12:56.566Z,99049.39
2022-11-17T01:15:27.320Z,99047.04
2022-11-17T01:17:58.056Z,99046.88
2022-11-17T01:20:29.010Z,99038.33
2022-11-17T01:22:59.635Z,99038.66
2022-11-17T01:25:30.230Z,99041.45
2022-11-17T01:28:00.842Z,99040.46
2022-11-17T01:30:31.603Z,99037.89
2022-11-17T01:33:02.362Z,99039.80
2022-11-17T01:35:34.938Z,99045.02
2022-11-17T01:38:05.484Z,99040.58
2022-11-17T01:40:36.117Z,99035.80
2022-11-17T01:43:11.739Z,99026.98
2022-11-17T01:45:42.611Z,99026.12
2022-11-17T01:48:15.775Z,99025.63
2022-11-17T01:50:49.594Z,99029.56
2022-11-17T01:53:22.577Z,99027.33
2022-11-17T01:55:56.677Z,99025.58
2022-11-17T01:58:30.291Z,99028.76
2022-11-17T02:01:01.097Z,99028.80
2022-11-17T02:03:35.334Z,99021.75
2022-11-17T02:06:10.604Z,99024.10
2022-11-17T02:08:44.109Z,99023.82
2022-11-17T02:11:17.153Z,99019.23
2022-11-17T02:13:49.101Z,99018.45
2022-11-17T02:16:20.177Z,99020.81
2022-11-17T02:18:51.438Z,99020.54
2022-11-17T02:21:51.998Z,99011.67
2022-11-17T02:24:52.087Z,99008.41
2022-11-17T02:27:43.298Z,99009.36
2022-11-17T02:30:17.424Z,99009.61
2022-11-17T02:32:59.650Z,99005.19
2022-11-17T02:35:39.868Z,99005.46
2022-11-17T02:38:21.921Z,98999.77
2022-11-17T02:40:59.251Z,98991.55
2022-11-17T02:43:55.207Z,98997.35
2022-11-17T02:46:29.805Z,99004.84
2022-11-17T02:49:06.077Z,99005.25
2022-11-17T02:51:39.159Z,99002.59
2022-11-17T02:54:11.241Z,99009.98
2022-11-17T02:56:45.100Z,99006.15
2022-11-17T02:59:19.284Z,99009.55
2022-11-17T03:02:21.278Z,99005.77
2022-11-17T03:05:04.802Z,99008.30
2022-11-17T03:07:47.266Z,99012.18
2022-11-17T03:10:21.621Z,99001.07
2022-11-17T03:13:02.499Z,98999.45
2022-11-17T03:15:47.937Z,98996.36
2022-11-17T03:18:25.389Z,98994.00
2022-11-17T03:21:06.504Z,98990.61
2022-11-17T03:23:45.622Z,98991.23
2022-11-17T03:26:22.398Z,98991.94
2022-11-17T03:28:53.540Z,98988.27
2022-11-17T03:31:27.408Z,98991.92
2022-11-17T03:33:59.306Z,98987.88
2022-11-17T03:36:35.285Z,98986.52
2022-11-17T03:39:11.035Z,98987.73
2022-11-17T03:41:47.319Z,98985.82
2022-11-17T03:44:20.560Z,98979.67
2022-11-17T03:46:53.162Z,98978.41
2022-11-17T03:49:32.903Z,98977.71
2022-11-17T03:52:04.117Z,98978.80
2022-11-17T03:54:35.946Z,98980.83
2022-11-17T03:57:11.600Z,98987.39
2022-11-17T03:59:48.178Z,98988.87
2022-11-17T04:02:20.126Z,98991.72
2022-11-17T04:05:09.128Z,98989.14
2022-11-17T04:07:42.204Z,98986.36
2022-11-17T04:10:15.529Z,98981.37
2022-11-17T04:13:04.209Z,98978.53
2022-11-17T04:15:52.587Z,98975.73
2022-11-17T04:18:24.586Z,98971.75
2022-11-17T04:20:57.268Z,98969.39
2022-11-17T04:23:28.200Z,98963.11
2022-11-17T04:26:17.123Z,98964.20
2022-11-17T04:28:50.553Z,98965.67
2022-11-17T04:31:22.804Z,98961.73
2022-11-17T04:33:54.756Z,98960.96
2022-11-17T04:36:27.188Z,98962.77
2022-11-17T04:39:00.551Z,98962.83
2022-11-17T04:41:49.362Z,98959.77
2022-11-17T04:44:21.178Z,98967.20
2022-11-17T04:46:52.531Z,98973.09
2022-11-17T04:49:25.066Z,98972.60
2022-11-17T04:51:56.295Z,98967.48
2022-11-17T04:54:27.209Z,98959.57
2022-11-17T04:56:58.058Z,98953.73
2022-11-17T04:59:28.664Z,98947.88
2022-11-17T05:02:05.295Z,98943.05
2022-11-17T05:04:54.229Z,98942.95
2022-11-17T05:07:25.327Z,98940.98
2022-11-17T05:09:55.994Z,98943.48
2022-11-17T05:12:44.264Z,98942.06
2022-11-17T05:15:35.025Z,98940.59
2022-11-17T05:18:05.630Z,98946.45
2022-11-17T05:20:36.871Z,98946.70
2022-11-17T05:23:25.051Z,98938.20
2022-11-17T05:25:58.274Z,98933.55
2022-11-17T05:28:32.116Z,98929.09
2022-11-17T05:31:02.825Z,98923.43
2022-11-17T05:33:37.606Z,98922.01
2022-11-17T05:36:09.989Z,98919.23
2022-11-17T05:38:40.794Z,98920.58
2022-11-17T05:41:11.761Z,98920.21
2022-11-17T05:43:42.617Z,98916.23
2022-11-17T05:46:13.801Z,98918.86
2022-11-17T05:48:44.834Z,98916.66
2022-11-17T05:51:15.623Z,98914.31
2022-11-17T05:53:46.217Z,98916.98
2022-11-17T05:56:36.728Z,98912.00
2022-11-17T05:59:22.156Z,98913.62
2022-11-17T06:02:01.562Z,98925.57
2022-11-17T06:04:33.625Z,98928.31
2022-11-17T06:07:04.800Z,98939.08
2022-11-17T06:09:38.145Z,98938.64
2022-11-17T06:12:11.963Z,98941.02
2022-11-17T06:14:42.596Z,98940.20
2022-11-17T06:17:22.703Z,98936.33
2022-11-17T06:19:58.668Z,98938.60
2022-11-17T06:22:30.630Z,98926.23
2022-11-17T06:25:03.081Z,98922.18
2022-11-17T06:27:35.166Z,98926.71
2022-11-17T06:30:08.018Z,98926.73
2022-11-17T06:32:43.558Z,98924.05
2022-11-17T06:35:16.691Z,98923.62
2022-11-17T06:37:47.390Z,98915.73
2022-11-17T06:40:18.565Z,98931.80
2022-11-17T06:43:08.378Z,98936.14
2022-11-17T06:45:40.776Z,98940.70
2022-11-17T06:48:13.350Z,98933.27
2022-11-17T06:50:44.582Z,98926.61
2022-11-17T06:53:15.550Z,98928.70
2022-11-17T06:55:50.919Z,98921.02
2022-11-17T06:58:21.516Z,98915.65
2022-11-17T07:00:52.170Z,98908.11
2022-11-17T07:03:22.908Z,98901.81
2022-11-17T07:05:53.496Z,98909.80
2022-11-17T07:08:24.017Z,98905.04
2022-11-17T07:10:55.757Z,98901.39
2022-11-17T07:13:27.310Z,98898.87
2022-11-17T07:16:02.694Z,98902.20
2022-11-17T07:18:34.198Z,98905.97
2022-11-17T07:21:07.033Z,98907.63
2022-11-17T07:23:38.280Z,98911.05
2022-11-17T07:26:09.382Z,98911.34
2022-11-17T07:28:40.144Z,98903.02
2022-11-17T07:31:11.522Z,98896.38
2022-11-17T07:33:42.092Z,98899.42
2022-11-17T07:36:15.214Z,98898.64
2022-11-17T07:38:46.198Z,98903.42
2022-11-17T07:41:17.160Z,98895.73
2022-11-17T07:43:47.865Z,98895.02
2022-11-17T07:46:18.619Z,98900.66
2022-11-17T07:48:49.252Z,98897.98
2022-11-17T07:51:20.018Z,98894.92
2022-11-17T07:53:50.915Z,98902.96
2022-11-17T07:56:21.578Z,98904.95
2022-11-17T07:58:52.180Z,98907.97
2022-11-17T08:01:22.914Z,98908.61
2022-11-17T08:03:54.028Z,98910.91
2022-11-17T08:06:24.990Z,98909.66
2022-11-17T08:08:55.868Z,98915.27
2022-11-17T08:11:26.606Z,98911.05
2022-11-17T08:13:57.240Z,98910.63
2022-11-17T08:16:30.939Z,98910.89
2022-11-17T08:19:01.694Z,98910.44
2022-11-17T08:21:32.340Z,98909.23
2022-11-17T08:24:03.367Z,98906.18
2022-11-17T08:26:34.072Z,98897.90
2022-11-17T08:29:04.652Z,98897.23
2022-11-17T08:31:35.496Z,98889.14
2022-11-17T08:34:06.474Z,98893.29
2022-11-17T08:36:37.056Z,98895.61
2022-11-17T08:39:07.886Z,98899.98
2022-11-17T08:41:38.685Z,98897.95
2022-11-17T08:44:09.709Z,98896.12
2022-11-17T08:46:40.395Z,98896.73
2022-11-17T08:49:10.934Z,98895.52
2022-11-17T08:51:41.586Z,98894.43
2022-11-17T08:54:14.327Z,98896.03
2022-11-17T08:56:46.414Z,98907.29
2022-11-17T08:59:17.288Z,98908.45
2022-11-17T09:01:47.946Z,98909.81
2022-11-17T09:04:19.424Z,98901.27
2022-11-17T09:06:50.120Z,98907.13
2022-11-17T09:09:21.211Z,98907.61
2022-11-17T09:11:52.009Z,98912.10
2022-11-17T09:14:22.681Z,98914.90
2022-11-17T09:16:53.279Z,98918.61
2022-11-17T09:19:24.177Z,98919.66
2022-11-17T09:21:54.809Z,98926.23
2022-11-17T09:24:26.689Z,98925.92
2022-11-17T09:26:58.401Z,98921.89
2022-11-17T09:29:29.082Z,98918.80
2022-11-17T09:31:59.870Z,98916.88
2022-11-17T09:34:30.477Z,98916.34
2022-11-17T09:37:01.274Z,98921.77
2022-11-17T09:39:31.930Z,98916.69
2022-11-17T09:42:02.812Z,98915.10
2022-11-17T09:44:40.885Z,98909.05
2022-11-17T09:47:22.629Z,98905.41
2022-11-17T09:50:00.291Z,98901.21
2022-11-17T09:52:37.959Z,98898.77
2022-11-17T09:55:23.665Z,98898.66
2022-11-17T09:58:02.164Z,98901.40
2022-11-17T10:00:36.279Z,98899.05
2022-11-17T10:03:17.259Z,98892.63
2022-11-17T10:05:49.081Z,98895.68
2022-11-17T10:08:23.096Z,98895.13
2022-11-17T10:10:54.487Z,98898.75
2022-11-17T10:13:29.894Z,98895.84
2022-11-17T10:16:03.402Z,98892.89
2022-11-17T10:18:38.112Z,98888.20
2022-11-17T10:21:09.984Z,98889.62
2022-11-17T10:23:54.515Z,98887.00
2022-11-17T10:26:25.262Z,98874.00
2022-11-17T10:29:12.343Z,98872.97
2022-11-17T10:31:47.539Z,98879.41
2022-11-17T10:34:40.274Z,98878.66
2022-11-17T10:37:28.447Z,98866.91
2022-11-17T10:40:25.000Z,98865.55
2022-11-17T10:43:25.299Z,98852.21
2022-11-17T10:45:58.266Z,98845.21
2022-11-17T10:48:32.072Z,98840.47
2022-11-17T10:51:04.433Z,98841.84
2022-11-17T10:53:45.223Z,98833.91
2022-11-17T10:56:19.957Z,98841.77
2022-11-17T10:59:01.858Z,98835.00
2022-11-17T11:01:36.058Z,98835.11
2022-11-17T11:04:26.521Z,98836.63
2022-11-17T11:07:09.464Z,98833.40
2022-11-17T11:09:45.629Z,98834.21
2022-11-17T11:12:21.271Z,98845.25
2022-11-17T11:14:55.917Z,98844.94
2022-11-17T11:17:30.843Z,98846.15
2022-11-17T11:20:01.868Z,98840.40
2022-11-17T11:22:42.278Z,98840.30
2022-11-17T11:25:31.990Z,98843.08
2022-11-17T11:28:18.519Z,98845.83
2022-11-17T11:31:06.298Z,98845.21
2022-11-17T11:33:42.619Z,98847.84
2022-11-17T11:36:25.403Z,98846.97
2022-11-17T11:39:01.954Z,98843.04
2022-11-17T11:41:45.498Z,98844.91
2022-11-17T11:44:42.426Z,98835.72
2022-11-17T11:47:29.186Z,98816.76
2022-11-17T11:50:04.434Z,98804.80
2022-11-17T11:52:39.155Z,98796.42
2022-11-17T11:55:20.062Z,98793.37
2022-11-17T11:57:56.772Z,98796.15
2022-11-17T12:00:28.122Z,98794.89
2022-11-17T12:03:06.624Z,98797.64
2022-11-17T12:05:47.009Z,98805.12
2022-11-17T12:08:26.344Z,98800.69
2022-11-17T12:11:22.486Z,98800.52
2022-11-17T12:13:54.595Z,98788.17
2022-11-17T12:16:32.948Z,98782.09
2022-11-17T12:19:03.922Z,98774.73
2022-11-17T12:21:34.877Z,98777.51
2022-11-17T12:24:15.186Z,98782.16
2022-11-17T12:26:46.079Z,98780.95
2022-11-17T12:29:34.225Z,98781.45
2022-11-17T12:32:05.943Z,98781.51
2022-11-17T12:34:37.407Z,98780.27
2022-11-17T12:37:30.626Z,98779.21
2022-11-17T12:40:30.588Z,98781.39
2022-11-17T12:43:22.615Z,98778.13
2022-11-17T12:46:14.813Z,98780.69
2022-11-17T12:48:54.515Z,98777.68
2022-11-17T12:51:32.759Z,98779.33
2022-11-17T12:54:19.493Z,98777.64
2022-11-17T12:57:07.548Z,98779.45
2022-11-17T13:00:07.623Z,98776.44
2022-11-17T13:03:00.282Z,98770.91
2022-11-17T13:05:31.887Z,98764.80
2022-11-17T13:08:20.368Z,98763.55
2022-11-17T13:10:51.295Z,98767.85
2022-11-17T13:13:23.571Z,98765.62
2022-11-17T13:15:56.906Z,98763.34
2022-11-17T13:18:32.870Z,98764.41
2022-11-17T13:21:03.832Z,98768.14
2022-11-17T13:23:35.680Z,98770.70
2022-11-17T13:26:20.748Z,98764.42
2022-11-17T13:29:03.050Z,98766.77
2022-11-17T13:31:34.075Z,98763.81
2022-11-17T13:34:09.008Z,98765.67
2022-11-17T13:36:52.947Z,98760.54
2022-11-17T13:39:27.279Z,98763.86
2022-11-17T13:41:59.171Z,98761.30
2022-11-17T13:44:30.395Z,98756.77
2022-11-17T13:47:21.171Z,98757.42
2022-11-17T13:49:52.012Z,98759.30
2022-11-17T13:52:40.566Z,98758.36
2022-11-17T13:55:20.259Z,98760.77
2022-11-17T13:57:59.709Z,98765.07
2022-11-17T14:00:32.073Z,98763.27
2022-11-17T14:03:05.298Z,98760.27
2022-11-17T14:05:36.626Z,98751.04
2022-11-17T14:08:32.851Z,98752.95
2022-11-17T14:11:22.294Z,98758.73
2022-11-17T14:13:58.579Z,98757.55
2022-11-17T14:16:35.018Z,98761.48
2022-11-17T14:19:25.058Z,98763.05
2022-11-17T14:22:04.394Z,98763.88
2022-11-17T14:24:35.561Z,98763.93
2022-11-17T14:27:13.573Z,98764.69
2022-11-17T14:29:44.377Z,98763.88
2022-11-17T14:32:15.311Z,98763.88
2022-11-17T14:34:45.906Z,98763.38
2022-11-17T14:37:17.045Z,98764.90
2022-11-17T14:39:47.690Z,98765.40
2022-11-17T14:42:18.471Z,98763.80
2022-11-17T14:44:49.169Z,98762.51
2022-11-17T14:47:20.241Z,98756.55
2022-11-17T14:49:53.957Z,98755.91
2022-11-17T14:52:24.655Z,98751.42
2022-11-17T14:54:55.376Z,98750.16
2022-11-17T14:57:26.305Z,98752.29
2022-11-17T14:59:56.959Z,98748.95
2022-11-17T15:02:27.683Z,98750.70
2022-11-17T15:05:00.133Z,98752.23
2022-11-17T15:07:31.636Z,98748.85
2022-11-17T15:10:02.743Z,98757.52
2022-11-17T15:12:33.489Z,98762.48
2022-11-17T15:15:05.010Z,98763.25
2022-11-17T15:17:35.718Z,98767.57
2022-11-17T15:20:09.698Z,98764.52
2022-11-17T15:22:40.291Z,98766.95
2022-11-17T15:25:12.176Z,98764.27
2022-11-17T15:27:42.857Z,98770.55
2022-11-17T15:30:15.397Z,98769.63
2022-11-17T15:32:46.102Z,98775.79
2022-11-17T15:35:17.006Z,98772.25
2022-11-17T15:37:47.660Z,98765.86
2022-11-17T15:40:19.734Z,98775.86
2022-11-17T15:42:53.477Z,98769.91
2022-11-17T15:45:24.138Z,98772.31
2022-11-17T15:47:54.935Z,98773.45
2022-11-17T15:50:25.573Z,98774.38
2022-11-17T15:53:04.121Z,98770.94
2022-11-17T15:55:36.160Z,98767.50
2022-11-17T15:58:06.833Z,98767.33
2022-11-17T16:00:40.289Z,98771.10
2022-11-17T16:03:11.095Z,98765.44
2022-11-17T16:05:41.701Z,98766.69
2022-11-17T16:08:12.477Z,98768.33
2022-11-17T16:10:43.078Z,98761.39
2022-11-17T16:13:13.710Z,98759.64
2022-11-17T16:15:44.403Z,98757.51
2022-11-17T16:18:15.110Z,98753.47
2022-11-17T16:20:46.025Z,98753.03
2022-11-17T16:23:17.423Z,98751.84
2022-11-17T16:25:49.526Z,98753.91
2022-11-17T16:28:20.749Z,98753.69
2022-11-17T16:30:51.726Z,98753.90
2022-11-17T16:33:22.640Z,98749.17
2022-11-17T16:35:53.399Z,98751.02
2022-11-17T16:38:24.201Z,98748.23
2022-11-17T16:40:54.935Z,98750.92
2022-11-17T16:43:26.131Z,98745.34
2022-11-17T16:45:56.833Z,98751.45
2022-11-17T16:48:27.555Z,98746.05
2022-11-17T16:50:58.565Z,98743.91
2022-11-17T16:53:29.543Z,98753.95
2022-11-17T16:56:05.852Z,98744.19
2022-11-17T16:58:37.467Z,98743.64
2022-11-17T17:01:16.504Z,98741.45
2022-11-17T17:03:47.648Z,98750.57
2022-11-17T17:06:19.549Z,98747.14
2022-11-17T17:08:53.407Z,98748.89
2022-11-17T17:11:24.697Z,98751.94
2022-11-17T17:13:56.418Z,98754.33
2022-11-17T17:16:27.175Z,98753.61
2022-11-17T17:19:00.685Z,98752.85
2022-11-17T17:21:32.524Z,98749.05
2022-11-17T17:24:03.600Z,98750.40
2022-11-17T17:26:36.349Z,98751.92
2022-11-17T17:29:08.103Z,98746.08
2022-11-17T17:31:40.634Z,98746.20
2022-11-17T17:34:12.629Z,98743.58
2022-11-17T17:36:43.913Z,98749.52
2022-11-17T17:39:17.814Z,98749.30
2022-11-17T17:41:48.977Z,98746.68
2022-11-17T17:44:20.736Z,98743.89
2022-11-17T17:46:51.529Z,98746.26
2022-11-17T17:49:22.399Z,98748.66
2022-11-17T17:51:53.111Z,98751.51
2022-11-17T17:54:25.337Z,98749.36
2022-11-17T17:56:57.734Z,98746.02
2022-11-17T17:59:28.490Z,98745.66
2022-11-17T18:01:59.324Z,98745.56
2022-11-17T18:04:30.145Z,98741.08
2022-11-17T18:07:01.654Z,98741.90
2022-11-17T18:09:33.149Z,98735.74
2022-11-17T18:12:04.089Z,98742.27
2022-11-17T18:14:34.905Z,98748.88
2022-11-17T18:17:05.557Z,98748.84
2022-11-17T18:19:36.454Z,98749.53
2022-11-17T18:22:07.118Z,98749.48
2022-11-17T18:24:37.797Z,98750.09
2022-11-17T18:27:09.028Z,98740.16
2022-11-17T18:29:39.750Z,98740.00
2022-11-17T18:32:10.491Z,98749.55
2022-11-17T18:34:42.019Z,98742.61
2022-11-17T18:37:12.781Z,98737.37
2022-11-17T18:39:43.479Z,98735.95
2022-11-17T18:42:14.132Z,98746.44
2022-11-17T18:44:44.908Z,98743.87
2022-11-17T18:47:18.715Z,98740.86
2022-11-17T18:49:49.451Z,98735.30
2022-11-17T18:52:20.082Z,98733.05
2022-11-17T18:54:50.795Z,98736.73
2022-11-17T18:57:21.403Z,98735.19
2022-11-17T18:59:52.088Z,98726.45
2022-11-17T19:02:23.080Z,98724.70
2022-11-17T19:04:53.770Z,98729.39
2022-11-17T19:07:24.555Z,98723.21
2022-11-17T19:09:55.308Z,98729.86
2022-11-17T19:12:26.138Z,98735.20
2022-11-17T19:14:57.318Z,98738.09
2022-11-17T19:17:28.310Z,98735.50
2022-11-17T19:19:59.005Z,98737.21
2022-11-17T19:22:29.833Z,98738.57
2022-11-17T19:25:01.207Z,98738.02
2022-11-17T19:27:32.003Z,98739.27
2022-11-17T19:30:02.689Z,98742.94
2022-11-17T19:32:33.324Z,98743.69
2022-11-17T19:35:13.842Z,98745.12
2022-11-17T19:37:47.932Z,98746.20
2022-11-17T19:40:19.611Z,98746.52
2022-11-17T19:42:51.172Z,98746.30
2022-11-17T19:45:21.867Z,98750.96
2022-11-17T19:47:52.485Z,98758.65
2022-11-17T19:50:23.142Z,98752.91
2022-11-17T19:52:54.098Z,98757.67
2022-11-17T19:55:24.742Z,98757.73
2022-11-17T19:57:55.421Z,98749.02
2022-11-17T20:00:26.211Z,98755.19
2022-11-17T20:02:56.933Z,98752.90
2022-11-17T20:05:27.630Z,98751.09
2022-11-17T20:07:58.277Z,98753.61
2022-11-17T20:10:29.062Z,98750.39
2022-11-17T20:13:00.245Z,98747.55
2022-11-17T20:15:34.920Z,98734.98
2022-11-17T20:18:06.113Z,98742.19
2022-11-17T20:20:37.693Z,98741.11
2022-11-17T20:23:08.768Z,98747.11
2022-11-17T20:25:41.334Z,98750.05
2022-11-17T20:28:12.011Z,98753.51
2022-11-17T20:30:43.239Z,98761.04
2022-11-17T20:33:14.080Z,98761.86
2022-11-17T20:35:44.773Z,98753.28
2022-11-17T20:38:15.894Z,98747.59
2022-11-17T20:40:46.662Z,98751.80
2022-11-17T20:43:17.502Z,98747.00
2022-11-17T20:45:51.132Z,98744.61
2022-11-17T20:48:22.150Z,98746.30
2022-11-17T20:51:03.597Z,98751.31
2022-11-17T20:53:34.969Z,98745.80
2022-11-17T20:56:08.653Z,98746.80
2022-11-17T20:58:40.331Z,98743.09
2022-11-17T21:01:12.678Z,98738.33
2022-11-17T21:03:43.617Z,98746.67
2022-11-17T21:06:15.415Z,98752.11
2022-11-17T21:08:47.181Z,98752.41
2022-11-17T21:11:33.476Z,98748.55
2022-11-17T21:14:05.056Z,98746.21
2022-11-17T21:16:37.810Z,98748.55
2022-11-17T21:19:09.095Z,98755.55
2022-11-17T21:21:40.227Z,98762.10
2022-11-17T21:24:12.370Z,98760.41
2022-11-17T21:26:43.033Z,98759.20
2022-11-17T21:29:15.714Z,98763.73
2022-11-17T21:31:46.775Z,98765.76
2022-11-17T21:34:19.004Z,98768.87
2022-11-17T21:36:50.016Z,98761.92
2022-11-17T21:39:21.021Z,98759.70
2022-11-17T21:41:51.859Z,98750.73
2022-11-17T21:44:22.927Z,98743.75
2022-11-17T21:46:53.751Z,98737.20
2022-11-17T21:49:24.397Z,98738.35
2022-11-17T21:51:55.102Z,98734.80
2022-11-17T21:54:25.811Z,98736.94
2022-11-17T21:56:56.451Z,98740.91
2022-11-17T21:59:27.323Z,98740.06
2022-11-17T22:01:58.410Z,98737.17
2022-11-17T22:04:29.112Z,98744.92
2022-11-17T22:06:59.831Z,98748.90
2022-11-17T22:09:30.522Z,98750.42
2022-11-17T22:12:01.252Z,98752.56
2022-11-17T22:14:32.108Z,98761.78
2022-11-17T22:17:02.955Z,98765.95
2022-11-17T22:19:33.733Z,98773.64
2022-11-17T22:22:04.422Z,98780.14
2022-11-17T22:24:35.119Z,98781.89
2022-11-17T22:27:05.872Z,98776.60
2022-11-17T22:29:36.667Z,98773.98
2022-11-17T22:32:07.703Z,98774.84
2022-11-17T22:34:38.491Z,98772.27
2022-11-17T22:37:09.361Z,98766.98
2022-11-17T22:39:40.010Z,98771.23
2022-11-17T22:42:10.866Z,98771.36
2022-11-17T22:44:41.582Z,98763.05
2022-11-17T22:47:12.286Z,98760.86
2022-11-17T22:49:42.901Z,98755.55
2022-11-17T22:52:15.201Z,98762.39
2022-11-17T22:54:45.903Z,98767.23
2022-11-17T22:57:16.528Z,98768.90
2022-11-17T22:59:47.162Z,98769.38
2022-11-17T23:02:17.936Z,98766.15
2022-11-17T23:04:48.602Z,98770.97
2022-11-17T23:07:19.412Z,98773.58
2022-11-17T23:09:50.215Z,98765.94
2022-11-17T23:12:20.959Z,98767.34
2022-11-17T23:14:51.650Z,98767.45
2022-11-17T23:17:22.320Z,98764.89
2022-11-17T23:19:52.999Z,98761.08
2022-11-17T23:22:23.720Z,98764.53
2022-11-17T23:24:54.478Z,98765.50
2022-11-17T23:27:25.128Z,98762.84
2022-11-17T23:29:56.001Z,98771.92
2022-11-17T23:32:26.631Z,98780.61
2022-11-17T23:34:57.546Z,98785.52
2022-11-17T23:37:28.955Z,98786.48
2022-11-17T23:39:59.721Z,98783.42
2022-11-17T23:42:32.609Z,98789.55
2022-11-17T23:45:03.654Z,98792.23
2022-11-17T23:47:34.454Z,98792.58
2022-11-17T23:50:05.261Z,98794.63
2022-11-17T23:52:36.064Z,98789.88
2022-11-17T23:55:08.534Z,98792.39
2022-11-17T23:57:39.331Z,98790.20
